sensor_id;sensor_type;location;lat;lon;timestamp;temperature;humidity
11540;DHT22;5826;54.756;9.192;2022-08-21T00:02:18;16.50;99.90
11540;DHT22;5826;54.756;9.192;2022-08-21T00:04:44;16.50;99.90
11540;DHT22;5826;54.756;9.192;2022-08-21T00:07:09;16.50;99.90
11540;DHT22;5826;54.756;9.192;2022-08-21T00:09:35;16.40;99.90
11540;DHT22;5826;54.756;9.192;2022-08-21T00:12:01;16.40;99.90
11540;DHT22;5826;54.756;9.192;2022-08-21T00:14:26;16.50;99.90
11540;DHT22;5826;54.756;9.192;2022-08-21T00:16:52;16.40;99.90
11540;DHT22;5826;54.756;9.192;2022-08-21T00:19:18;16.40;99.90
11540;DHT22;5826;54.756;9.192;2022-08-21T00:21:43;16.40;99.90
11540;DHT22;5826;54.756;9.192;2022-08-21T00:24:09;16.40;99.90
11540;DHT22;5826;54.756;9.192;2022-08-21T00:26:34;16.30;99.90
11540;DHT22;5826;54.756;9.192;2022-08-21T00:29:00;16.30;99.90
11540;DHT22;5826;54.756;9.192;2022-08-21T00:31:25;16.30;99.90
11540;DHT22;5826;54.756;9.192;2022-08-21T00:33:51;16.20;99.90
11540;DHT22;5826;54.756;9.192;2022-08-21T00:36:16;16.20;99.90
11540;DHT22;5826;54.756;9.192;2022-08-21T00:38:42;16.20;99.90
11540;DHT22;5826;54.756;9.192;2022-08-21T00:41:10;16.10;99.90
11540;DHT22;5826;54.756;9.192;2022-08-21T00:43:37;16.10;99.90
11540;DHT22;5826;54.756;9.192;2022-08-21T00:46:04;16.10;99.90
11540;DHT22;5826;54.756;9.192;2022-08-21T00:48:30;16.10;99.90
11540;DHT22;5826;54.756;9.192;2022-08-21T00:51:00;16.10;99.90
11540;DHT22;5826;54.756;9.192;2022-08-21T00:53:27;16.10;99.90
11540;DHT22;5826;54.756;9.192;2022-08-21T00:55:53;16.10;99.90
11540;DHT22;5826;54.756;9.192;2022-08-21T00:58:19;16.10;99.90
11540;DHT22;5826;54.756;9.192;2022-08-21T01:00:48;16.10;99.90
11540;DHT22;5826;54.756;9.192;2022-08-21T01:03:17;16.10;99.90
11540;DHT22;5826;54.756;9.192;2022-08-21T01:05:43;16.10;99.90
11540;DHT22;5826;54.756;9.192;2022-08-21T01:08:10;16.10;99.90
11540;DHT22;5826;54.756;9.192;2022-08-21T01:10:36;16.10;99.90
11540;DHT22;5826;54.756;9.192;2022-08-21T01:13:04;16.10;99.90
11540;DHT22;5826;54.756;9.192;2022-08-21T01:15:34;16.00;99.90
11540;DHT22;5826;54.756;9.192;2022-08-21T01:18:02;16.10;99.90
11540;DHT22;5826;54.756;9.192;2022-08-21T01:20:29;16.00;99.90
11540;DHT22;5826;54.756;9.192;2022-08-21T01:22:54;16.00;99.90
11540;DHT22;5826;54.756;9.192;2022-08-21T01:25:20;16.00;99.90
11540;DHT22;5826;54.756;9.192;2022-08-21T01:27:46;16.00;99.90
11540;DHT22;5826;54.756;9.192;2022-08-21T01:30:18;16.00;99.90
11540;DHT22;5826;54.756;9.192;2022-08-21T01:32:45;16.00;99.90
11540;DHT22;5826;54.756;9.192;2022-08-21T01:35:12;16.00;99.90
11540;DHT22;5826;54.756;9.192;2022-08-21T01:37:39;15.90;99.90
11540;DHT22;5826;54.756;9.192;2022-08-21T01:40:05;15.80;99.90
11540;DHT22;5826;54.756;9.192;2022-08-21T01:42:31;15.90;99.90
11540;DHT22;5826;54.756;9.192;2022-08-21T01:44:57;15.80;99.90
11540;DHT22;5826;54.756;9.192;2022-08-21T01:47:23;15.80;99.90
11540;DHT22;5826;54.756;9.192;2022-08-21T01:49:49;15.80;99.90
11540;DHT22;5826;54.756;9.192;2022-08-21T01:52:14;15.80;99.90
11540;DHT22;5826;54.756;9.192;2022-08-21T01:54:40;15.80;99.90
11540;DHT22;5826;54.756;9.192;2022-08-21T01:57:06;15.80;99.90
11540;DHT22;5826;54.756;9.192;2022-08-21T01:59:33;15.70;99.90
11540;DHT22;5826;54.756;9.192;2022-08-21T02:01:59;15.70;99.90
11540;DHT22;5826;54.756;9.192;2022-08-21T02:04:24;15.80;99.90
11540;DHT22;5826;54.756;9.192;2022-08-21T02:06:50;15.80;99.90
11540;DHT22;5826;54.756;9.192;2022-08-21T02:09:16;15.80;99.90
11540;DHT22;5826;54.756;9.192;2022-08-21T02:11:42;15.80;99.90
11540;DHT22;5826;54.756;9.192;2022-08-21T02:14:09;15.70;99.90
11540;DHT22;5826;54.756;9.192;2022-08-21T02:16:37;15.70;99.90
11540;DHT22;5826;54.756;9.192;2022-08-21T02:19:03;15.70;99.90
11540;DHT22;5826;54.756;9.192;2022-08-21T02:21:28;15.70;99.90
11540;DHT22;5826;54.756;9.192;2022-08-21T02:23:54;15.70;99.90
11540;DHT22;5826;54.756;9.192;2022-08-21T02:26:19;15.60;99.90
11540;DHT22;5826;54.756;9.192;2022-08-21T02:28:45;15.60;99.90
11540;DHT22;5826;54.756;9.192;2022-08-21T02:31:11;15.60;99.90
11540;DHT22;5826;54.756;9.192;2022-08-21T02:33:36;15.60;99.90
11540;DHT22;5826;54.756;9.192;2022-08-21T02:36:03;15.60;99.90
11540;DHT22;5826;54.756;9.192;2022-08-21T02:38:31;15.60;99.90
11540;DHT22;5826;54.756;9.192;2022-08-21T02:40:58;15.60;99.90
11540;DHT22;5826;54.756;9.192;2022-08-21T02:43:25;15.60;99.90
11540;DHT22;5826;54.756;9.192;2022-08-21T02:45:53;15.50;99.90
11540;DHT22;5826;54.756;9.192;2022-08-21T02:48:22;15.50;99.90
11540;DHT22;5826;54.756;9.192;2022-08-21T02:50:53;15.50;99.90
11540;DHT22;5826;54.756;9.192;2022-08-21T02:53:19;15.50;99.90
11540;DHT22;5826;54.756;9.192;2022-08-21T02:55:47;15.50;99.90
11540;DHT22;5826;54.756;9.192;2022-08-21T02:58:15;15.50;99.90
11540;DHT22;5826;54.756;9.192;2022-08-21T03:00:42;15.40;99.90
11540;DHT22;5826;54.756;9.192;2022-08-21T03:03:09;15.40;99.90
11540;DHT22;5826;54.756;9.192;2022-08-21T03:05:36;15.40;99.90
11540;DHT22;5826;54.756;9.192;2022-08-21T03:08:07;15.40;99.90
11540;DHT22;5826;54.756;9.192;2022-08-21T03:10:38;15.40;99.90
11540;DHT22;5826;54.756;9.192;2022-08-21T03:13:05;15.40;99.90
11540;DHT22;5826;54.756;9.192;2022-08-21T03:15:31;15.30;99.90
11540;DHT22;5826;54.756;9.192;2022-08-21T03:17:56;16.10;99.90
11540;DHT22;5826;54.756;9.192;2022-08-21T03:20:25;15.40;99.90
11540;DHT22;5826;54.756;9.192;2022-08-21T03:22:52;15.40;99.90
11540;DHT22;5826;54.756;9.192;2022-08-21T03:25:19;15.30;99.90
11540;DHT22;5826;54.756;9.192;2022-08-21T03:27:45;15.30;99.90
11540;DHT22;5826;54.756;9.192;2022-08-21T03:30:12;15.30;99.90
11540;DHT22;5826;54.756;9.192;2022-08-21T03:32:38;15.30;99.90
11540;DHT22;5826;54.756;9.192;2022-08-21T03:35:04;15.30;99.90
11540;DHT22;5826;54.756;9.192;2022-08-21T03:37:30;15.30;99.90
11540;DHT22;5826;54.756;9.192;2022-08-21T03:39:56;15.30;99.90
11540;DHT22;5826;54.756;9.192;2022-08-21T03:42:22;15.30;99.90
11540;DHT22;5826;54.756;9.192;2022-08-21T03:44:48;15.30;99.90
11540;DHT22;5826;54.756;9.192;2022-08-21T03:47:14;15.30;99.90
11540;DHT22;5826;54.756;9.192;2022-08-21T03:49:40;15.30;99.90
11540;DHT22;5826;54.756;9.192;2022-08-21T03:52:06;15.30;99.90
11540;DHT22;5826;54.756;9.192;2022-08-21T03:54:31;15.30;99.90
11540;DHT22;5826;54.756;9.192;2022-08-21T03:56:57;15.20;99.90
11540;DHT22;5826;54.756;9.192;2022-08-21T03:59:23;15.20;99.90
11540;DHT22;5826;54.756;9.192;2022-08-21T04:01:54;15.30;99.90
11540;DHT22;5826;54.756;9.192;2022-08-21T04:04:20;15.30;99.90
11540;DHT22;5826;54.756;9.192;2022-08-21T04:06:46;15.30;99.90
11540;DHT22;5826;54.756;9.192;2022-08-21T04:09:12;15.30;99.90
11540;DHT22;5826;54.756;9.192;2022-08-21T04:11:37;15.30;99.90
11540;DHT22;5826;54.756;9.192;2022-08-21T04:14:03;15.30;99.90
11540;DHT22;5826;54.756;9.192;2022-08-21T04:16:29;15.30;99.90
11540;DHT22;5826;54.756;9.192;2022-08-21T04:18:56;15.30;99.90
11540;DHT22;5826;54.756;9.192;2022-08-21T04:21:22;15.30;99.90
11540;DHT22;5826;54.756;9.192;2022-08-21T04:23:48;15.30;99.90
11540;DHT22;5826;54.756;9.192;2022-08-21T04:26:13;15.30;99.90
11540;DHT22;5826;54.756;9.192;2022-08-21T04:28:39;15.30;99.90
11540;DHT22;5826;54.756;9.192;2022-08-21T04:31:04;15.30;99.90
11540;DHT22;5826;54.756;9.192;2022-08-21T04:33:30;15.40;99.90
11540;DHT22;5826;54.756;9.192;2022-08-21T04:35:56;15.40;99.90
11540;DHT22;5826;54.756;9.192;2022-08-21T04:38:21;15.40;99.90
11540;DHT22;5826;54.756;9.192;2022-08-21T04:40:48;15.40;99.90
11540;DHT22;5826;54.756;9.192;2022-08-21T04:43:14;15.40;99.90
11540;DHT22;5826;54.756;9.192;2022-08-21T04:45:42;15.40;99.90
11540;DHT22;5826;54.756;9.192;2022-08-21T04:48:10;15.40;99.90
11540;DHT22;5826;54.756;9.192;2022-08-21T04:50:39;15.40;99.90
11540;DHT22;5826;54.756;9.192;2022-08-21T04:53:16;15.50;99.90
11540;DHT22;5826;54.756;9.192;2022-08-21T04:55:43;15.50;99.90
11540;DHT22;5826;54.756;9.192;2022-08-21T04:58:11;15.50;99.90
11540;DHT22;5826;54.756;9.192;2022-08-21T05:00:38;15.50;99.90
11540;DHT22;5826;54.756;9.192;2022-08-21T05:03:05;15.50;99.90
11540;DHT22;5826;54.756;9.192;2022-08-21T05:05:31;15.50;99.90
11540;DHT22;5826;54.756;9.192;2022-08-21T05:07:59;15.60;99.90
11540;DHT22;5826;54.756;9.192;2022-08-21T05:10:26;15.60;99.90
11540;DHT22;5826;54.756;9.192;2022-08-21T05:12:51;15.60;99.90
11540;DHT22;5826;54.756;9.192;2022-08-21T05:15:18;15.60;99.90
11540;DHT22;5826;54.756;9.192;2022-08-21T05:17:43;15.60;99.90
11540;DHT22;5826;54.756;9.192;2022-08-21T05:20:11;15.70;99.90
11540;DHT22;5826;54.756;9.192;2022-08-21T05:22:37;15.70;99.90
11540;DHT22;5826;54.756;9.192;2022-08-21T05:25:03;15.80;99.90
11540;DHT22;5826;54.756;9.192;2022-08-21T05:27:29;15.80;99.90
11540;DHT22;5826;54.756;9.192;2022-08-21T05:29:56;15.90;99.90
11540;DHT22;5826;54.756;9.192;2022-08-21T05:32:21;15.90;99.90
11540;DHT22;5826;54.756;9.192;2022-08-21T05:34:47;16.00;99.90
11540;DHT22;5826;54.756;9.192;2022-08-21T05:37:13;16.00;99.90
11540;DHT22;5826;54.756;9.192;2022-08-21T05:39:38;16.10;99.90
11540;DHT22;5826;54.756;9.192;2022-08-21T05:42:04;16.20;99.90
11540;DHT22;5826;54.756;9.192;2022-08-21T05:44:30;16.30;99.90
11540;DHT22;5826;54.756;9.192;2022-08-21T05:47:04;16.40;99.90
11540;DHT22;5826;54.756;9.192;2022-08-21T05:49:30;16.50;99.90
11540;DHT22;5826;54.756;9.192;2022-08-21T05:51:55;16.60;99.90
11540;DHT22;5826;54.756;9.192;2022-08-21T05:54:20;16.70;99.90
11540;DHT22;5826;54.756;9.192;2022-08-21T05:56:46;16.70;99.90
11540;DHT22;5826;54.756;9.192;2022-08-21T05:59:11;16.80;99.90
11540;DHT22;5826;54.756;9.192;2022-08-21T06:01:38;16.90;99.90
11540;DHT22;5826;54.756;9.192;2022-08-21T06:04:04;17.00;99.90
11540;DHT22;5826;54.756;9.192;2022-08-21T06:06:30;17.10;99.90
11540;DHT22;5826;54.756;9.192;2022-08-21T06:08:55;17.20;99.90
11540;DHT22;5826;54.756;9.192;2022-08-21T06:11:21;17.20;99.90
11540;DHT22;5826;54.756;9.192;2022-08-21T06:13:46;17.20;99.90
11540;DHT22;5826;54.756;9.192;2022-08-21T06:16:14;17.30;99.90
11540;DHT22;5826;54.756;9.192;2022-08-21T06:18:40;17.40;99.90
11540;DHT22;5826;54.756;9.192;2022-08-21T06:21:06;17.40;99.90
11540;DHT22;5826;54.756;9.192;2022-08-21T06:23:32;17.50;99.90
11540;DHT22;5826;54.756;9.192;2022-08-21T06:25:58;17.50;99.90
11540;DHT22;5826;54.756;9.192;2022-08-21T06:28:24;17.60;99.90
11540;DHT22;5826;54.756;9.192;2022-08-21T06:30:50;17.60;99.90
11540;DHT22;5826;54.756;9.192;2022-08-21T06:33:15;17.70;99.90
11540;DHT22;5826;54.756;9.192;2022-08-21T06:35:41;17.80;99.90
11540;DHT22;5826;54.756;9.192;2022-08-21T06:38:06;17.80;99.90
11540;DHT22;5826;54.756;9.192;2022-08-21T06:40:32;17.80;99.90
11540;DHT22;5826;54.756;9.192;2022-08-21T06:43:04;17.90;99.90
11540;DHT22;5826;54.756;9.192;2022-08-21T06:45:30;17.90;99.90
11540;DHT22;5826;54.756;9.192;2022-08-21T06:47:55;18.00;99.90
11540;DHT22;5826;54.756;9.192;2022-08-21T06:50:21;18.00;99.90
11540;DHT22;5826;54.756;9.192;2022-08-21T06:52:46;18.10;99.90
11540;DHT22;5826;54.756;9.192;2022-08-21T06:55:12;18.20;99.90
11540;DHT22;5826;54.756;9.192;2022-08-21T06:57:38;18.20;99.90
11540;DHT22;5826;54.756;9.192;2022-08-21T07:00:05;18.30;99.90
11540;DHT22;5826;54.756;9.192;2022-08-21T07:02:30;18.40;99.90
11540;DHT22;5826;54.756;9.192;2022-08-21T07:04:58;18.40;99.90
11540;DHT22;5826;54.756;9.192;2022-08-21T07:07:23;18.50;99.90
11540;DHT22;5826;54.756;9.192;2022-08-21T07:09:49;18.60;99.90
11540;DHT22;5826;54.756;9.192;2022-08-21T07:12:14;18.60;99.90
11540;DHT22;5826;54.756;9.192;2022-08-21T07:14:40;18.70;99.90
11540;DHT22;5826;54.756;9.192;2022-08-21T07:17:05;18.80;99.90
11540;DHT22;5826;54.756;9.192;2022-08-21T07:19:31;18.80;99.90
11540;DHT22;5826;54.756;9.192;2022-08-21T07:21:59;18.90;99.90
11540;DHT22;5826;54.756;9.192;2022-08-21T07:24:25;19.00;99.90
11540;DHT22;5826;54.756;9.192;2022-08-21T07:26:51;19.10;99.90
11540;DHT22;5826;54.756;9.192;2022-08-21T07:29:16;19.10;99.90
11540;DHT22;5826;54.756;9.192;2022-08-21T07:31:42;19.10;99.90
11540;DHT22;5826;54.756;9.192;2022-08-21T07:34:08;19.20;99.90
11540;DHT22;5826;54.756;9.192;2022-08-21T07:36:33;19.20;99.90
11540;DHT22;5826;54.756;9.192;2022-08-21T07:38:59;19.30;99.90
11540;DHT22;5826;54.756;9.192;2022-08-21T07:41:29;19.30;99.90
11540;DHT22;5826;54.756;9.192;2022-08-21T07:43:59;19.40;99.90
11540;DHT22;5826;54.756;9.192;2022-08-21T07:46:25;19.40;99.90
11540;DHT22;5826;54.756;9.192;2022-08-21T07:48:51;19.50;99.90
11540;DHT22;5826;54.756;9.192;2022-08-21T07:51:18;19.60;99.90
11540;DHT22;5826;54.756;9.192;2022-08-21T07:53:50;19.60;99.90
11540;DHT22;5826;54.756;9.192;2022-08-21T07:56:16;19.70;99.90
11540;DHT22;5826;54.756;9.192;2022-08-21T07:58:42;19.70;99.90
11540;DHT22;5826;54.756;9.192;2022-08-21T08:01:08;19.70;99.90
11540;DHT22;5826;54.756;9.192;2022-08-21T08:03:34;19.80;99.90
11540;DHT22;5826;54.756;9.192;2022-08-21T08:05:59;19.80;99.90
11540;DHT22;5826;54.756;9.192;2022-08-21T08:08:25;19.90;99.90
11540;DHT22;5826;54.756;9.192;2022-08-21T08:10:52;19.90;99.90
11540;DHT22;5826;54.756;9.192;2022-08-21T08:13:18;20.00;99.90
11540;DHT22;5826;54.756;9.192;2022-08-21T08:15:44;20.10;99.90
11540;DHT22;5826;54.756;9.192;2022-08-21T08:18:09;20.30;99.90
11540;DHT22;5826;54.756;9.192;2022-08-21T08:20:35;20.30;99.90
11540;DHT22;5826;54.756;9.192;2022-08-21T08:23:01;20.40;99.90
11540;DHT22;5826;54.756;9.192;2022-08-21T08:25:27;20.60;99.90
11540;DHT22;5826;54.756;9.192;2022-08-21T08:27:53;20.60;99.90
11540;DHT22;5826;54.756;9.192;2022-08-21T08:30:19;20.70;99.90
11540;DHT22;5826;54.756;9.192;2022-08-21T08:32:46;20.80;99.90
11540;DHT22;5826;54.756;9.192;2022-08-21T08:35:13;20.90;99.90
11540;DHT22;5826;54.756;9.192;2022-08-21T08:37:42;20.90;99.90
11540;DHT22;5826;54.756;9.192;2022-08-21T08:40:28;20.90;99.90
11540;DHT22;5826;54.756;9.192;2022-08-21T08:42:55;20.90;99.90
11540;DHT22;5826;54.756;9.192;2022-08-21T08:45:22;21.10;99.90
11540;DHT22;5826;54.756;9.192;2022-08-21T08:48:03;21.20;99.90
11540;DHT22;5826;54.756;9.192;2022-08-21T08:53:18;21.30;99.90
11540;DHT22;5826;54.756;9.192;2022-08-21T08:55:45;21.30;99.90
11540;DHT22;5826;54.756;9.192;2022-08-21T08:58:20;21.40;99.90
11540;DHT22;5826;54.756;9.192;2022-08-21T09:00:49;21.40;99.90
11540;DHT22;5826;54.756;9.192;2022-08-21T09:03:16;21.40;99.90
11540;DHT22;5826;54.756;9.192;2022-08-21T09:09:00;21.60;99.90
11540;DHT22;5826;54.756;9.192;2022-08-21T09:11:37;21.70;99.90
11540;DHT22;5826;54.756;9.192;2022-08-21T09:19:55;21.90;99.90
11540;DHT22;5826;54.756;9.192;2022-08-21T09:22:50;22.00;99.90
11540;DHT22;5826;54.756;9.192;2022-08-21T09:25:25;22.10;99.90
11540;DHT22;5826;54.756;9.192;2022-08-21T09:27:51;22.20;99.90
11540;DHT22;5826;54.756;9.192;2022-08-21T09:30:18;22.20;99.90
11540;DHT22;5826;54.756;9.192;2022-08-21T09:32:44;22.10;99.90
11540;DHT22;5826;54.756;9.192;2022-08-21T09:35:18;22.20;99.90
11540;DHT22;5826;54.756;9.192;2022-08-21T09:38:04;22.30;99.90
11540;DHT22;5826;54.756;9.192;2022-08-21T09:40:44;22.30;99.90
11540;DHT22;5826;54.756;9.192;2022-08-21T09:43:18;22.40;99.90
11540;DHT22;5826;54.756;9.192;2022-08-21T09:45:45;22.40;99.90
11540;DHT22;5826;54.756;9.192;2022-08-21T09:48:13;22.40;99.90
11540;DHT22;5826;54.756;9.192;2022-08-21T09:50:40;22.50;99.90
11540;DHT22;5826;54.756;9.192;2022-08-21T09:53:21;22.50;99.90
11540;DHT22;5826;54.756;9.192;2022-08-21T09:55:56;22.50;99.90
11540;DHT22;5826;54.756;9.192;2022-08-21T09:58:44;22.50;99.90
11540;DHT22;5826;54.756;9.192;2022-08-21T10:01:20;22.50;99.90
11540;DHT22;5826;54.756;9.192;2022-08-21T10:03:46;22.60;99.90
11540;DHT22;5826;54.756;9.192;2022-08-21T10:06:23;22.50;99.90
11540;DHT22;5826;54.756;9.192;2022-08-21T10:08:49;22.60;99.90
11540;DHT22;5826;54.756;9.192;2022-08-21T10:11:16;22.60;99.90
11540;DHT22;5826;54.756;9.192;2022-08-21T10:13:47;22.60;99.90
11540;DHT22;5826;54.756;9.192;2022-08-21T10:16:42;22.70;99.90
11540;DHT22;5826;54.756;9.192;2022-08-21T10:20:06;22.80;99.90
11540;DHT22;5826;54.756;9.192;2022-08-21T10:30:52;23.30;99.90
11540;DHT22;5826;54.756;9.192;2022-08-21T10:36:14;23.30;99.90
11540;DHT22;5826;54.756;9.192;2022-08-21T10:39:44;23.40;99.90
11540;DHT22;5826;54.756;9.192;2022-08-21T10:44:23;23.50;99.90
11540;DHT22;5826;54.756;9.192;2022-08-21T10:49:39;23.60;99.90
11540;DHT22;5826;54.756;9.192;2022-08-21T10:55:16;23.90;99.90
11540;DHT22;5826;54.756;9.192;2022-08-21T10:57:54;23.90;99.90
11540;DHT22;5826;54.756;9.192;2022-08-21T11:00:28;24.00;99.90
11540;DHT22;5826;54.756;9.192;2022-08-21T11:03:16;24.00;99.90
11540;DHT22;5826;54.756;9.192;2022-08-21T11:06:08;24.00;99.90
11540;DHT22;5826;54.756;9.192;2022-08-21T11:08:39;24.10;99.90
11540;DHT22;5826;54.756;9.192;2022-08-21T11:11:12;24.30;99.90
11540;DHT22;5826;54.756;9.192;2022-08-21T11:13:47;24.40;99.90
11540;DHT22;5826;54.756;9.192;2022-08-21T11:16:36;24.50;99.90
11540;DHT22;5826;54.756;9.192;2022-08-21T11:21:50;24.70;99.90
11540;DHT22;5826;54.756;9.192;2022-08-21T11:24:34;24.50;99.90
11540;DHT22;5826;54.756;9.192;2022-08-21T11:27:28;24.10;99.90
11540;DHT22;5826;54.756;9.192;2022-08-21T11:29:58;23.70;99.90
11540;DHT22;5826;54.756;9.192;2022-08-21T11:32:50;23.40;99.90
11540;DHT22;5826;54.756;9.192;2022-08-21T11:46:10;22.50;99.90
11540;DHT22;5826;54.756;9.192;2022-08-21T11:51:52;22.50;99.90
11540;DHT22;5826;54.756;9.192;2022-08-21T11:54:41;22.40;99.90
11540;DHT22;5826;54.756;9.192;2022-08-21T11:57:17;22.40;99.90
11540;DHT22;5826;54.756;9.192;2022-08-21T12:00:05;22.50;99.90
11540;DHT22;5826;54.756;9.192;2022-08-21T12:02:36;22.70;99.90
11540;DHT22;5826;54.756;9.192;2022-08-21T12:05:06;22.80;99.90
11540;DHT22;5826;54.756;9.192;2022-08-21T12:07:37;22.80;99.90
11540;DHT22;5826;54.756;9.192;2022-08-21T12:10:11;22.80;99.90
11540;DHT22;5826;54.756;9.192;2022-08-21T12:12:44;22.90;99.90
11540;DHT22;5826;54.756;9.192;2022-08-21T12:18:06;23.70;99.90
11540;DHT22;5826;54.756;9.192;2022-08-21T12:20:44;24.10;99.90
11540;DHT22;5826;54.756;9.192;2022-08-21T12:26:00;24.20;99.90
11540;DHT22;5826;54.756;9.192;2022-08-21T12:28:27;24.10;99.90
11540;DHT22;5826;54.756;9.192;2022-08-21T12:30:53;24.00;99.90
11540;DHT22;5826;54.756;9.192;2022-08-21T12:33:39;24.00;99.90
11540;DHT22;5826;54.756;9.192;2022-08-21T12:36:12;23.90;99.90
11540;DHT22;5826;54.756;9.192;2022-08-21T12:39:05;23.80;99.90
11540;DHT22;5826;54.756;9.192;2022-08-21T12:42:15;23.60;99.90
11540;DHT22;5826;54.756;9.192;2022-08-21T12:44:55;23.40;99.90
11540;DHT22;5826;54.756;9.192;2022-08-21T12:48:48;23.50;99.90
11540;DHT22;5826;54.756;9.192;2022-08-21T12:50:46;23.70;99.90
11540;DHT22;5826;54.756;9.192;2022-08-21T12:56:19;24.10;99.90
11540;DHT22;5826;54.756;9.192;2022-08-21T12:59:03;24.50;99.90
11540;DHT22;5826;54.756;9.192;2022-08-21T13:01:36;24.90;99.90
11540;DHT22;5826;54.756;9.192;2022-08-21T13:04:10;24.90;99.90
11540;DHT22;5826;54.756;9.192;2022-08-21T13:06:42;24.70;99.90
11540;DHT22;5826;54.756;9.192;2022-08-21T13:09:11;24.70;99.90
11540;DHT22;5826;54.756;9.192;2022-08-21T13:11:39;24.90;99.90
11540;DHT22;5826;54.756;9.192;2022-08-21T13:14:06;25.10;99.90
11540;DHT22;5826;54.756;9.192;2022-08-21T13:16:36;25.30;99.90
11540;DHT22;5826;54.756;9.192;2022-08-21T13:19:05;25.40;99.90
11540;DHT22;5826;54.756;9.192;2022-08-21T13:21:39;25.50;99.90
11540;DHT22;5826;54.756;9.192;2022-08-21T13:24:16;25.80;99.90
11540;DHT22;5826;54.756;9.192;2022-08-21T13:26:41;26.00;99.90
11540;DHT22;5826;54.756;9.192;2022-08-21T13:29:10;26.20;99.90
11540;DHT22;5826;54.756;9.192;2022-08-21T13:31:37;26.40;99.90
11540;DHT22;5826;54.756;9.192;2022-08-21T13:34:04;26.70;99.90
11540;DHT22;5826;54.756;9.192;2022-08-21T13:36:34;27.10;99.90
11540;DHT22;5826;54.756;9.192;2022-08-21T13:39:03;27.50;99.90
11540;DHT22;5826;54.756;9.192;2022-08-21T13:41:33;27.70;99.90
11540;DHT22;5826;54.756;9.192;2022-08-21T13:44:00;27.90;99.90
11540;DHT22;5826;54.756;9.192;2022-08-21T13:46:36;27.90;99.90
11540;DHT22;5826;54.756;9.192;2022-08-21T13:49:03;28.30;99.90
11540;DHT22;5826;54.756;9.192;2022-08-21T13:51:30;28.30;99.30
11540;DHT22;5826;54.756;9.192;2022-08-21T13:53:57;28.40;99.90
11540;DHT22;5826;54.756;9.192;2022-08-21T13:56:41;28.70;99.70
11540;DHT22;5826;54.756;9.192;2022-08-21T13:59:07;29.10;99.00
11540;DHT22;5826;54.756;9.192;2022-08-21T14:01:51;29.50;99.10
11540;DHT22;5826;54.756;9.192;2022-08-21T14:04:32;29.70;99.00
11540;DHT22;5826;54.756;9.192;2022-08-21T14:06:58;29.90;98.80
11540;DHT22;5826;54.756;9.192;2022-08-21T14:09:40;29.60;98.90
11540;DHT22;5826;54.756;9.192;2022-08-21T14:12:26;29.30;98.80
11540;DHT22;5826;54.756;9.192;2022-08-21T14:14:54;29.20;99.30
11540;DHT22;5826;54.756;9.192;2022-08-21T14:17:35;28.70;99.90
11540;DHT22;5826;54.756;9.192;2022-08-21T14:20:05;28.10;99.00
11540;DHT22;5826;54.756;9.192;2022-08-21T14:25:07;26.60;99.90
11540;DHT22;5826;54.756;9.192;2022-08-21T14:27:35;26.10;99.90
11540;DHT22;5826;54.756;9.192;2022-08-21T14:30:29;25.70;99.90
11540;DHT22;5826;54.756;9.192;2022-08-21T14:32:55;25.90;99.90
11540;DHT22;5826;54.756;9.192;2022-08-21T14:35:21;26.50;99.90
11540;DHT22;5826;54.756;9.192;2022-08-21T14:37:48;27.30;99.90
11540;DHT22;5826;54.756;9.192;2022-08-21T14:40:16;28.10;99.90
11540;DHT22;5826;54.756;9.192;2022-08-21T14:42:42;28.70;99.90
11540;DHT22;5826;54.756;9.192;2022-08-21T14:45:14;29.00;99.90
11540;DHT22;5826;54.756;9.192;2022-08-21T14:47:41;29.30;99.90
11540;DHT22;5826;54.756;9.192;2022-08-21T14:50:08;29.30;99.90
11540;DHT22;5826;54.756;9.192;2022-08-21T14:52:34;29.40;99.90
11540;DHT22;5826;54.756;9.192;2022-08-21T14:55:00;29.70;99.90
11540;DHT22;5826;54.756;9.192;2022-08-21T14:57:29;30.10;99.90
11540;DHT22;5826;54.756;9.192;2022-08-21T14:59:55;30.40;99.40
11540;DHT22;5826;54.756;9.192;2022-08-21T15:02:20;30.50;99.90
11540;DHT22;5826;54.756;9.192;2022-08-21T15:04:46;30.40;99.90
11540;DHT22;5826;54.756;9.192;2022-08-21T15:07:11;30.50;99.70
11540;DHT22;5826;54.756;9.192;2022-08-21T15:09:37;30.40;99.40
11540;DHT22;5826;54.756;9.192;2022-08-21T15:12:04;30.10;99.90
11540;DHT22;5826;54.756;9.192;2022-08-21T15:14:33;29.90;99.90
11540;DHT22;5826;54.756;9.192;2022-08-21T15:16:59;29.40;99.90
11540;DHT22;5826;54.756;9.192;2022-08-21T15:19:25;28.60;99.90
11540;DHT22;5826;54.756;9.192;2022-08-21T15:21:51;27.90;99.90
11540;DHT22;5826;54.756;9.192;2022-08-21T15:24:17;27.30;99.90
11540;DHT22;5826;54.756;9.192;2022-08-21T15:26:43;26.70;99.90
11540;DHT22;5826;54.756;9.192;2022-08-21T15:29:09;26.10;99.90
11540;DHT22;5826;54.756;9.192;2022-08-21T15:31:35;25.60;99.90
11540;DHT22;5826;54.756;9.192;2022-08-21T15:34:02;25.20;99.90
11540;DHT22;5826;54.756;9.192;2022-08-21T15:36:28;24.80;99.90
11540;DHT22;5826;54.756;9.192;2022-08-21T15:38:53;24.50;99.90
11540;DHT22;5826;54.756;9.192;2022-08-21T15:41:19;24.40;99.90
11540;DHT22;5826;54.756;9.192;2022-08-21T15:43:49;24.30;99.90
11540;DHT22;5826;54.756;9.192;2022-08-21T15:46:16;24.40;99.90
11540;DHT22;5826;54.756;9.192;2022-08-21T15:48:42;24.80;99.90
11540;DHT22;5826;54.756;9.192;2022-08-21T15:51:10;25.00;99.90
11540;DHT22;5826;54.756;9.192;2022-08-21T15:53:36;25.50;99.90
11540;DHT22;5826;54.756;9.192;2022-08-21T15:56:05;26.20;99.90
11540;DHT22;5826;54.756;9.192;2022-08-21T15:58:30;26.90;99.90
11540;DHT22;5826;54.756;9.192;2022-08-21T16:00:59;27.40;99.50
11540;DHT22;5826;54.756;9.192;2022-08-21T16:03:25;27.80;99.70
11540;DHT22;5826;54.756;9.192;2022-08-21T16:05:52;28.10;99.20
11540;DHT22;5826;54.756;9.192;2022-08-21T16:08:19;28.50;99.30
11540;DHT22;5826;54.756;9.192;2022-08-21T16:10:45;28.80;99.00
11540;DHT22;5826;54.756;9.192;2022-08-21T16:13:38;29.00;98.90
11540;DHT22;5826;54.756;9.192;2022-08-21T16:16:04;29.10;97.30
11540;DHT22;5826;54.756;9.192;2022-08-21T16:18:30;28.90;98.80
11540;DHT22;5826;54.756;9.192;2022-08-21T16:20:56;28.50;99.00
11540;DHT22;5826;54.756;9.192;2022-08-21T16:23:21;27.90;99.60
11540;DHT22;5826;54.756;9.192;2022-08-21T16:25:47;27.40;99.90
11540;DHT22;5826;54.756;9.192;2022-08-21T16:28:15;27.20;99.90
11540;DHT22;5826;54.756;9.192;2022-08-21T16:30:44;27.30;99.90
11540;DHT22;5826;54.756;9.192;2022-08-21T16:33:26;27.40;99.80
11540;DHT22;5826;54.756;9.192;2022-08-21T16:35:54;27.50;99.90
11540;DHT22;5826;54.756;9.192;2022-08-21T16:38:20;27.30;99.70
11540;DHT22;5826;54.756;9.192;2022-08-21T16:40:45;27.20;99.70
11540;DHT22;5826;54.756;9.192;2022-08-21T16:43:11;27.20;99.80
11540;DHT22;5826;54.756;9.192;2022-08-21T16:45:37;27.20;99.50
11540;DHT22;5826;54.756;9.192;2022-08-21T16:48:03;27.20;99.70
11540;DHT22;5826;54.756;9.192;2022-08-21T16:50:34;27.10;99.70
11540;DHT22;5826;54.756;9.192;2022-08-21T16:52:59;27.00;99.80
11540;DHT22;5826;54.756;9.192;2022-08-21T16:55:25;26.90;99.90
11540;DHT22;5826;54.756;9.192;2022-08-21T16:57:52;26.80;99.90